Dixon, Iowa
Current Conditions -  °F | °C
As of 7:52 PM on Monday 24 Nov 2014 (Local Time) from KDVN Reporting Station
Light Snow Light Snow  
Wind Chill: -11°   Ceiling: 2200
Heat Index: -3°   Visibility: 8mi
Dew Point: -7°   Wind: 20mph
Humidity: 78%   Direction: 260°W
Pressure: 29.8"   Gusts: NA
Location:  41.74°N, 90.78°W
Report Text: KDVN 250152Z AUTO 26017KT 8SM -SN OVC022 M03/M07 A2980 RMK AO2 SNE05B36 SLP100 P0000 T10331067
Loading
Personal Weather Stations






























Interactive Weather Map New forecast layout! Learn more

10-Day Weather Forecast

Advertisements
Track Severe Weather on mobile